Time;durP1;ratioP1;P1;durP2;ratioP2;P2;SDS_P1;SDS_P2;PMS_P1;PMS_P2;Temp;Humidity;BMP_temperature;BMP_pressure;BME280_temperature;BME280_humidity;BME280_pressure;Samples;Min_cycle;Max_cycle;Signal;HPM_P1;HPM_P2
2022/04/18 00:01:44;;;;;;;6.50;3.97;;;;;;;;;;4390612;32;20100;-71
2022/04/18 00:04:10;;;;;;;6.35;4.18;;;;;;;;;;4391989;32;20515;-71
2022/04/18 00:06:37;;;;;;;7.25;4.50;;;;;;;;;;4378437;32;20085;-72
2022/04/18 00:09:04;;;;;;;8.20;4.70;;;;;;;;;;4390037;32;20499;-71
2022/04/18 00:11:31;;;;;;;6.60;4.20;;;;;;;;;;4391431;32;20093;-70
2022/04/18 00:13:58;;;;;;;6.47;4.03;;;;;;;;;;4390012;32;20077;-71
2022/04/18 00:16:25;;;;;;;6.68;4.40;;;;;;;;;;4389866;32;20066;-72
2022/04/18 00:18:52;;;;;;;7.57;4.28;;;;;;;;;;4390642;32;20177;-70
2022/04/18 00:21:19;;;;;;;9.20;4.32;;;;;;;;;;4390521;32;20077;-71
2022/04/18 00:23:46;;;;;;;5.87;3.78;;;;;;;;;;4377833;32;20074;-70
2022/04/18 00:26:13;;;;;;;7.75;4.25;;;;;;;;;;4390430;32;20073;-71
2022/04/18 00:28:39;;;;;;;5.53;3.83;;;;;;;;;;4390127;32;20107;-70
2022/04/18 00:31:06;;;;;;;5.50;3.97;;;;;;;;;;4390003;32;20161;-72
2022/04/18 00:33:33;;;;;;;7.43;4.43;;;;;;;;;;4390129;32;20076;-72
2022/04/18 00:36:00;;;;;;;7.03;4.22;;;;;;;;;;4389785;32;20077;-71
2022/04/18 00:38:28;;;;;;;5.75;4.15;;;;;;;;;;4390318;32;20157;-71
2022/04/18 00:40:55;;;;;;;7.60;4.62;;;;;;;;;;4391074;32;20515;-71
2022/04/18 00:43:41;;;;;;;6.07;4.15;;;;;;;;;;4390320;32;20092;-71
2022/04/18 00:46:08;;;;;;;5.82;3.80;;;;;;;;;;4391273;32;20093;-71
2022/04/18 00:48:35;;;;;;;7.45;4.37;;;;;;;;;;4389892;32;20165;-72
2022/04/18 00:51:07;;;;;;;6.93;4.60;;;;;;;;;;4389560;32;20080;-72
2022/04/18 00:53:36;;;;;;;7.93;4.53;;;;;;;;;;4390073;32;20070;-71
2022/04/18 00:56:03;;;;;;;7.10;4.50;;;;;;;;;;4390357;32;20082;-71
2022/04/18 00:58:30;;;;;;;5.80;3.95;;;;;;;;;;4377427;32;20157;-71
2022/04/18 01:00:57;;;;;;;6.57;4.50;;;;;;;;;;4377201;32;20074;-72
2022/04/18 01:03:24;;;;;;;6.28;3.85;;;;;;;;;;4389709;32;20183;-71
2022/04/18 01:05:50;;;;;;;6.50;4.18;;;;;;;;;;4377640;32;20606;-70
2022/04/18 01:08:17;;;;;;;8.18;4.37;;;;;;;;;;4392027;32;20112;-70
2022/04/18 01:10:45;;;;;;;7.15;4.03;;;;;;;;;;4392085;32;20077;-71
2022/04/18 01:13:12;;;;;;;7.65;4.15;;;;;;;;;;4390075;32;20090;-71
2022/04/18 01:15:38;;;;;;;7.95;4.15;;;;;;;;;;4390823;32;20462;-71
2022/04/18 01:18:05;;;;;;;6.93;4.28;;;;;;;;;;4389461;32;20451;-71
2022/04/18 01:20:37;;;;;;;6.95;4.60;;;;;;;;;;4389754;32;20523;-71
2022/04/18 01:23:06;;;;;;;6.30;4.32;;;;;;;;;;4389424;32;20153;-71
2022/04/18 01:31:04;;;;;;;6.37;4.47;;;;;;;;;;4389370;32;20144;-71
2022/04/18 01:33:31;;;;;;;6.90;4.62;;;;;;;;;;4377824;32;20101;-71
2022/04/18 01:35:58;;;;;;;7.68;4.53;;;;;;;;;;4390602;32;20086;-71
2022/04/18 01:38:25;;;;;;;6.60;4.70;;;;;;;;;;4389410;32;20081;-70
2022/04/18 01:40:52;;;;;;;7.37;4.68;;;;;;;;;;4377127;32;20082;-71
2022/04/18 01:43:19;;;;;;;7.05;4.40;;;;;;;;;;4390877;32;20443;-71
2022/04/18 01:45:45;;;;;;;7.45;4.07;;;;;;;;;;4393718;32;20085;-71
2022/04/18 01:48:12;;;;;;;6.85;4.30;;;;;;;;;;4379497;32;20146;-72
2022/04/18 01:50:39;;;;;;;7.97;4.62;;;;;;;;;;4393504;32;20174;-71
2022/04/18 01:53:06;;;;;;;8.13;4.55;;;;;;;;;;4391996;32;20089;-71
2022/04/18 01:55:33;;;;;;;7.80;4.80;;;;;;;;;;4378978;32;20457;-71
2022/04/18 01:57:59;;;;;;;6.62;4.68;;;;;;;;;;4379267;32;20081;-70
2022/04/18 02:00:26;;;;;;;5.97;4.35;;;;;;;;;;4393370;32;20591;-71
2022/04/18 02:02:53;;;;;;;7.20;4.50;;;;;;;;;;4391699;32;20094;-71
2022/04/18 02:05:20;;;;;;;6.80;4.30;;;;;;;;;;4391545;32;20521;-72
2022/04/18 02:07:46;;;;;;;8.52;4.87;;;;;;;;;;4391633;32;20100;-71
2022/04/18 02:10:13;;;;;;;7.20;4.40;;;;;;;;;;4391650;32;20070;-71
2022/04/18 02:12:39;;;;;;;8.85;4.85;;;;;;;;;;4393195;32;20165;-72
2022/04/18 02:15:07;;;;;;;7.05;4.15;;;;;;;;;;4391822;32;20065;-71
2022/04/18 02:17:33;;;;;;;8.48;5.07;;;;;;;;;;4393075;32;20072;-70
2022/04/18 02:20:00;;;;;;;8.18;4.68;;;;;;;;;;4393166;32;20536;-70
2022/04/18 02:22:27;;;;;;;11.20;4.68;;;;;;;;;;4393078;32;20083;-70
2022/04/18 02:24:57;;;;;;;6.22;4.30;;;;;;;;;;4391625;32;20146;-71
2022/04/18 02:27:24;;;;;;;10.40;4.50;;;;;;;;;;4391593;32;20090;-71
2022/04/18 02:29:51;;;;;;;10.32;4.40;;;;;;;;;;4379145;32;20082;-71
2022/04/18 02:35:04;;;;;;;8.93;4.70;;;;;;;;;;4392513;32;20085;-71
2022/04/18 02:37:30;;;;;;;9.07;4.47;;;;;;;;;;4391396;32;20105;-71
2022/04/18 02:39:59;;;;;;;10.65;4.62;;;;;;;;;;4391355;32;20076;-71
2022/04/18 02:42:26;;;;;;;7.53;4.80;;;;;;;;;;4391111;32;20066;-71
2022/04/18 02:44:53;;;;;;;6.90;4.62;;;;;;;;;;4391401;32;20093;-71
2022/04/18 02:47:20;;;;;;;10.82;4.65;;;;;;;;;;4392938;32;20586;-72
2022/04/18 02:49:46;;;;;;;6.65;4.30;;;;;;;;;;4378837;32;20153;-71
2022/04/18 02:52:13;;;;;;;7.70;5.10;;;;;;;;;;4392420;32;20080;-71
2022/04/18 02:54:39;;;;;;;8.27;5.03;;;;;;;;;;4392281;32;20099;-71
2022/04/18 02:57:06;;;;;;;7.30;4.40;;;;;;;;;;4391355;32;20150;-72
2022/04/18 02:59:32;;;;;;;6.82;4.45;;;;;;;;;;4392673;32;20089;-71
2022/04/18 03:01:59;;;;;;;8.93;4.78;;;;;;;;;;4392330;32;20093;-71
2022/04/18 03:04:26;;;;;;;7.53;4.60;;;;;;;;;;4392472;32;20089;-71
2022/04/18 03:06:52;;;;;;;8.35;4.57;;;;;;;;;;4390893;32;20097;-71
2022/04/18 03:09:19;;;;;;;9.30;5.10;;;;;;;;;;4390835;32;20080;-71
2022/04/18 03:11:46;;;;;;;10.50;4.43;;;;;;;;;;4391096;32;20161;-72
2022/04/18 03:14:12;;;;;;;8.80;4.40;;;;;;;;;;4392483;32;20111;-70
2022/04/18 03:16:39;;;;;;;9.45;5.55;;;;;;;;;;4378207;32;20077;-71
2022/04/18 03:19:05;;;;;;;9.80;5.55;;;;;;;;;;4391989;32;20166;-71
2022/04/18 03:21:32;;;;;;;7.20;4.80;;;;;;;;;;4392165;32;20070;-72
2022/04/18 03:23:59;;;;;;;17.85;7.75;;;;;;;;;;4390645;32;20553;-71
2022/04/18 03:26:25;;;;;;;10.60;7.00;;;;;;;;;;4392293;32;20085;-71
2022/04/18 03:28:52;;;;;;;10.30;6.22;;;;;;;;;;4390487;32;20153;-71
2022/04/18 03:31:19;;;;;;;11.02;5.45;;;;;;;;;;4392170;32;20138;-71
2022/04/18 03:33:45;;;;;;;15.73;6.45;;;;;;;;;;4391153;32;20090;-70
2022/04/18 03:41:43;;;;;;;12.05;4.97;;;;;;;;;;4390375;32;20074;-71
2022/04/18 03:44:10;;;;;;;12.32;6.20;;;;;;;;;;4390534;32;20104;-71
2022/04/18 03:46:37;;;;;;;16.55;7.70;;;;;;;;;;4391546;32;20203;-71
2022/04/18 03:49:03;;;;;;;16.17;7.75;;;;;;;;;;4390015;32;20083;-71
2022/04/18 03:51:30;;;;;;;12.00;7.07;;;;;;;;;;4391901;32;20077;-71
2022/04/18 03:53:57;;;;;;;17.65;6.90;;;;;;;;;;4392193;32;20092;-71
2022/04/18 03:56:23;;;;;;;13.90;7.75;;;;;;;;;;4391837;32;20093;-71
2022/04/18 03:58:50;;;;;;;12.37;6.90;;;;;;;;;;4390162;32;20194;-71
2022/04/18 04:01:16;;;;;;;18.23;8.25;;;;;;;;;;4391574;32;20158;-71
2022/04/18 04:03:43;;;;;;;18.27;8.50;;;;;;;;;;4390680;32;20190;-71
2022/04/18 04:06:10;;;;;;;13.62;8.15;;;;;;;;;;4389107;32;20227;-71
2022/04/18 04:08:36;;;;;;;11.48;6.37;;;;;;;;;;4365047;32;20074;-71
2022/04/18 04:11:03;;;;;;;13.85;7.97;;;;;;;;;;4391629;32;20149;-71
2022/04/18 04:13:29;;;;;;;14.82;7.97;;;;;;;;;;4394903;32;20164;-71
2022/04/18 04:15:56;;;;;;;10.95;6.62;;;;;;;;;;4404332;32;20137;-71
2022/04/18 04:18:23;;;;;;;10.35;5.78;;;;;;;;;;4393262;32;20085;-73
2022/04/18 04:20:50;;;;;;;13.35;7.25;;;;;;;;;;4394096;32;20085;-71
2022/04/18 04:23:16;;;;;;;9.20;6.78;;;;;;;;;;4391451;32;20093;-71
2022/04/18 04:25:43;;;;;;;12.68;7.37;;;;;;;;;;4377335;32;20078;-72
2022/04/18 04:28:11;;;;;;;13.50;7.72;;;;;;;;;;4376895;32;20552;-71
2022/04/18 04:30:37;;;;;;;16.27;7.10;;;;;;;;;;4391278;32;20078;-71
2022/04/18 04:33:04;;;;;;;10.18;7.10;;;;;;;;;;4391151;32;20173;-70
2022/04/18 04:35:31;;;;;;;10.88;7.00;;;;;;;;;;4389932;32;20157;-72
2022/04/18 04:37:57;;;;;;;12.70;6.72;;;;;;;;;;4391532;32;20585;-71
2022/04/18 04:40:24;;;;;;;9.43;6.78;;;;;;;;;;4377828;32;20147;-68
2022/04/18 04:42:50;;;;;;;13.45;7.20;;;;;;;;;;4391153;32;20600;-71
2022/04/18 04:45:17;;;;;;;12.15;7.40;;;;;;;;;;4391219;32;20493;-72
2022/04/18 04:47:44;;;;;;;12.32;6.82;;;;;;;;;;4389675;32;20095;-71
2022/04/18 04:50:10;;;;;;;13.50;7.57;;;;;;;;;;4364789;32;20085;-71
2022/04/18 04:52:37;;;;;;;12.43;7.37;;;;;;;;;;4389589;32;20066;-71
2022/04/18 04:55:06;;;;;;;10.65;7.22;;;;;;;;;;4391345;32;20069;-71
2022/04/18 04:57:33;;;;;;;13.05;6.85;;;;;;;;;;4391406;32;20076;-71
2022/04/18 05:00:00;;;;;;;10.85;7.53;;;;;;;;;;4391087;32;20591;-71
2022/04/18 05:02:27;;;;;;;12.48;7.68;;;;;;;;;;4391257;32;20518;-71
2022/04/18 05:04:53;;;;;;;15.27;7.70;;;;;;;;;;4390715;32;20467;-70
2022/04/18 05:07:20;;;;;;;13.13;7.72;;;;;;;;;;4391522;32;20081;-71
2022/04/18 05:09:47;;;;;;;13.30;7.43;;;;;;;;;;4390983;32;20082;-71
2022/04/18 05:12:13;;;;;;;13.02;7.62;;;;;;;;;;4391437;32;20080;-71
2022/04/18 05:14:40;;;;;;;13.05;7.95;;;;;;;;;;4389438;32;20150;-71
2022/04/18 05:17:06;;;;;;;14.52;7.82;;;;;;;;;;4392489;32;20095;-71
2022/04/18 05:19:33;;;;;;;13.35;8.38;;;;;;;;;;4392243;32;20162;-71
2022/04/18 05:22:00;;;;;;;16.23;8.15;;;;;;;;;;4392308;32;20072;-71
2022/04/18 05:24:26;;;;;;;17.12;8.07;;;;;;;;;;4392272;32;20110;-72
2022/04/18 05:26:53;;;;;;;19.62;8.82;;;;;;;;;;4393632;32;20083;-71
2022/04/18 05:29:19;;;;;;;14.68;8.50;;;;;;;;;;4392068;32;20529;-71
2022/04/18 05:31:46;;;;;;;11.38;7.37;;;;;;;;;;4392483;32;20077;-71
2022/04/18 05:34:13;;;;;;;16.35;9.23;;;;;;;;;;4393745;32;20489;-71
2022/04/18 05:36:39;;;;;;;14.43;7.22;;;;;;;;;;4392198;32;20149;-71
2022/04/18 05:39:06;;;;;;;14.35;7.65;;;;;;;;;;4393507;32;20173;-71
2022/04/18 05:41:32;;;;;;;13.60;8.73;;;;;;;;;;4392214;32;20463;-71
2022/04/18 05:44:02;;;;;;;11.48;7.12;;;;;;;;;;4367549;32;20217;-70
2022/04/18 05:46:29;;;;;;;13.77;8.60;;;;;;;;;;4391991;32;20066;-70
2022/04/18 05:48:56;;;;;;;15.80;8.45;;;;;;;;;;4366926;32;20092;-71
2022/04/18 05:51:23;;;;;;;10.55;6.95;;;;;;;;;;4392155;32;20115;-71
2022/04/18 05:53:50;;;;;;;17.08;9.52;;;;;;;;;;4393392;32;20069;-71
2022/04/18 05:56:16;;;;;;;15.82;9.10;;;;;;;;;;4379622;32;20096;-71
2022/04/18 05:58:43;;;;;;;18.12;8.98;;;;;;;;;;4379281;32;20077;-71
2022/04/18 06:01:09;;;;;;;11.85;7.25;;;;;;;;;;4391610;32;20112;-71
2022/04/18 06:03:36;;;;;;;12.43;7.53;;;;;;;;;;4393139;32;20234;-71
2022/04/18 06:06:02;;;;;;;11.57;7.30;;;;;;;;;;4391527;32;20085;-70
2022/04/18 06:08:29;;;;;;;17.87;9.00;;;;;;;;;;4394050;32;20165;-71
2022/04/18 06:10:56;;;;;;;15.15;8.45;;;;;;;;;;4391642;32;20189;-72
2022/04/18 06:13:22;;;;;;;15.25;8.75;;;;;;;;;;4393400;32;20148;-71
2022/04/18 06:15:52;;;;;;;12.80;6.20;;;;;;;;;;4393119;32;20081;-71
2022/04/18 06:18:19;;;;;;;11.18;6.85;;;;;;;;;;4393128;32;20086;-72
2022/04/18 06:20:46;;;;;;;16.65;9.18;;;;;;;;;;4393094;32;20097;-72
2022/04/18 06:23:14;;;;;;;15.07;8.00;;;;;;;;;;4392950;32;20076;-71
2022/04/18 06:25:41;;;;;;;12.05;6.68;;;;;;;;;;4391623;32;20070;-71
2022/04/18 06:28:07;;;;;;;16.05;9.10;;;;;;;;;;4392022;32;20077;-73
2022/04/18 06:30:34;;;;;;;14.40;8.05;;;;;;;;;;4392697;32;20599;-71
2022/04/18 06:33:00;;;;;;;13.65;7.43;;;;;;;;;;4392891;32;20094;-71
2022/04/18 06:35:27;;;;;;;15.10;8.07;;;;;;;;;;4393147;32;20176;-71
2022/04/18 06:37:54;;;;;;;15.60;7.85;;;;;;;;;;4392676;32;20160;-72
2022/04/18 06:40:20;;;;;;;15.90;8.38;;;;;;;;;;4392665;32;20591;-71
2022/04/18 06:42:47;;;;;;;13.27;7.62;;;;;;;;;;4392846;32;20148;-71
2022/04/18 06:45:14;;;;;;;12.30;7.60;;;;;;;;;;4391380;32;20153;-72
2022/04/18 06:47:40;;;;;;;11.73;7.47;;;;;;;;;;4378388;32;20180;-70
2022/04/18 06:50:11;;;;;;;17.52;8.85;;;;;;;;;;4378148;32;20464;-70
2022/04/18 06:52:42;;;;;;;12.10;7.93;;;;;;;;;;4379946;32;20529;-71
2022/04/18 06:55:09;;;;;;;13.73;9.25;;;;;;;;;;4392784;32;20139;-72
2022/04/18 06:57:36;;;;;;;15.52;7.75;;;;;;;;;;4392321;32;20074;-72
2022/04/18 07:00:05;;;;;;;12.10;7.53;;;;;;;;;;4392421;32;20119;-71
2022/04/18 07:02:32;;;;;;;12.80;7.57;;;;;;;;;;4366083;32;20065;-70
2022/04/18 07:04:59;;;;;;;11.63;7.25;;;;;;;;;;4390734;32;20096;-69
2022/04/18 07:07:26;;;;;;;16.48;7.37;;;;;;;;;;4393013;32;20097;-70
2022/04/18 07:09:52;;;;;;;14.02;7.90;;;;;;;;;;4390911;32;20097;-71
2022/04/18 07:12:23;;;;;;;16.80;7.25;;;;;;;;;;4392127;32;20137;-71
2022/04/18 07:14:50;;;;;;;14.27;7.97;;;;;;;;;;4378404;32;20174;-70
2022/04/18 07:17:17;;;;;;;15.05;9.30;;;;;;;;;;4378357;32;20101;-69
2022/04/18 07:19:43;;;;;;;21.52;10.20;;;;;;;;;;4392455;32;20108;-69
2022/04/18 07:22:10;;;;;;;17.40;10.07;;;;;;;;;;4391954;32;20164;-71
2022/04/18 07:24:36;;;;;;;16.05;9.98;;;;;;;;;;4390798;32;20077;-71
2022/04/18 07:27:03;;;;;;;17.77;10.18;;;;;;;;;;4366453;32;20094;-70
2022/04/18 07:29:30;;;;;;;16.58;10.30;;;;;;;;;;4379731;32;20530;-71
2022/04/18 07:31:57;;;;;;;18.20;10.25;;;;;;;;;;4390278;32;20176;-71
2022/04/18 07:34:23;;;;;;;18.20;10.52;;;;;;;;;;4390639;32;20070;-70
2022/04/18 07:36:50;;;;;;;14.77;9.82;;;;;;;;;;4390526;32;20165;-72
2022/04/18 07:39:16;;;;;;;16.98;8.63;;;;;;;;;;4377489;32;20479;-69
2022/04/18 07:41:43;;;;;;;16.70;9.95;;;;;;;;;;4390178;32;20161;-70
2022/04/18 07:44:10;;;;;;;17.48;10.32;;;;;;;;;;4390027;32;20148;-71
2022/04/18 07:46:37;;;;;;;17.30;10.18;;;;;;;;;;4390044;32;20601;-71
2022/04/18 07:49:04;;;;;;;14.75;8.57;;;;;;;;;;4390729;32;20162;-70
2022/04/18 07:51:42;;;;;;;13.45;8.30;;;;;;;;;;4393188;32;20100;-71
2022/04/18 07:54:14;;;;;;;15.07;9.13;;;;;;;;;;4367383;32;20524;-70
2022/04/18 07:56:50;;;;;;;20.35;10.95;;;;;;;;;;4392998;32;20157;-70
2022/04/18 07:59:18;;;;;;;21.08;10.95;;;;;;;;;;4390248;32;20085;-71
2022/04/18 08:01:45;;;;;;;16.95;10.55;;;;;;;;;;4390161;32;20105;-71
2022/04/18 08:04:12;;;;;;;20.70;10.40;;;;;;;;;;4391222;32;20073;-70
2022/04/18 08:06:38;;;;;;;20.65;12.40;;;;;;;;;;4389726;32;20086;-68
2022/04/18 08:09:05;;;;;;;19.87;10.02;;;;;;;;;;4391652;32;20073;-71
2022/04/18 08:11:32;;;;;;;14.90;6.82;;;;;;;;;;4391683;32;20523;-71
2022/04/18 08:13:58;;;;;;;15.88;9.10;;;;;;;;;;4390114;32;20154;-71
2022/04/18 08:16:25;;;;;;;11.65;6.72;;;;;;;;;;4389741;32;20158;-71
2022/04/18 08:18:51;;;;;;;17.33;10.18;;;;;;;;;;4389820;32;20468;-71
2022/04/18 08:21:19;;;;;;;16.77;9.85;;;;;;;;;;4390105;32;20093;-71
2022/04/18 08:23:46;;;;;;;16.15;9.93;;;;;;;;;;4377455;32;20158;-70
2022/04/18 08:26:13;;;;;;;17.45;10.80;;;;;;;;;;4377501;32;20080;-70
2022/04/18 08:28:40;;;;;;;12.95;7.78;;;;;;;;;;4377449;32;20471;-69
2022/04/18 08:31:08;;;;;;;16.70;10.93;;;;;;;;;;4390027;32;20121;-71
2022/04/18 08:33:35;;;;;;;18.35;10.48;;;;;;;;;;4377728;32;20081;-70
2022/04/18 08:36:02;;;;;;;15.20;9.18;;;;;;;;;;4389995;32;20123;-70
2022/04/18 08:38:28;;;;;;;20.80;12.95;;;;;;;;;;4391806;32;20468;-71
2022/04/18 08:40:58;;;;;;;15.18;7.75;;;;;;;;;;4392791;32;20078;-70
2022/04/18 08:43:25;;;;;;;16.08;9.40;;;;;;;;;;4378721;32;20070;-71
2022/04/18 08:45:51;;;;;;;18.77;10.82;;;;;;;;;;4391272;32;20144;-71
2022/04/18 08:53:49;;;;;;;5.97;3.28;;;;;;;;;;4384537;32;20072;-71
2022/04/18 08:56:16;;;;;;;15.80;9.07;;;;;;;;;;4381389;32;20078;-71
2022/04/18 08:58:42;;;;;;;19.02;11.07;;;;;;;;;;4380690;32;20085;-70
2022/04/18 09:01:09;;;;;;;14.60;7.87;;;;;;;;;;4393615;32;20090;-71
2022/04/18 09:03:36;;;;;;;15.80;10.15;;;;;;;;;;4380872;32;20089;-71
2022/04/18 09:06:10;;;;;;;14.63;9.07;;;;;;;;;;4379406;32;20514;-70
2022/04/18 09:08:51;;;;;;;14.95;9.50;;;;;;;;;;4392583;32;20077;-71
2022/04/18 09:11:29;;;;;;;16.85;11.05;;;;;;;;;;4392705;32;20088;-70
2022/04/18 09:14:09;;;;;;;15.35;8.57;;;;;;;;;;4392675;32;20073;-71
2022/04/18 09:16:37;;;;;;;17.15;10.57;;;;;;;;;;4380075;32;20088;-70
2022/04/18 09:19:16;;;;;;;21.48;13.32;;;;;;;;;;4394225;32;20153;-71
2022/04/18 09:21:44;;;;;;;23.67;11.77;;;;;;;;;;4392842;32;20504;-71
2022/04/18 09:24:42;;;;;;;18.17;9.95;;;;;;;;;;4392307;32;20197;-70
2022/04/18 09:27:29;;;;;;;14.87;9.00;;;;;;;;;;4392792;32;20501;-71
2022/04/18 09:30:04;;;;;;;17.50;9.98;;;;;;;;;;4379952;32;20153;-69
2022/04/18 09:32:31;;;;;;;17.35;10.32;;;;;;;;;;4379906;32;20546;-70
2022/04/18 09:35:03;;;;;;;16.33;8.93;;;;;;;;;;4392320;32;20085;-70
2022/04/18 09:37:30;;;;;;;16.23;9.50;;;;;;;;;;4366987;32;20474;-70
2022/04/18 09:39:57;;;;;;;17.80;9.80;;;;;;;;;;4379375;32;20464;-69
2022/04/18 09:42:25;;;;;;;14.63;9.10;;;;;;;;;;4392653;32;20157;-71
2022/04/18 09:44:52;;;;;;;10.95;7.00;;;;;;;;;;4379428;32;20084;-71
2022/04/18 09:47:22;;;;;;;14.05;9.55;;;;;;;;;;4391819;32;20089;-71
2022/04/18 09:49:48;;;;;;;14.57;9.13;;;;;;;;;;4393493;32;20173;-70
2022/04/18 09:52:17;;;;;;;16.20;10.75;;;;;;;;;;4392485;32;20167;-70
2022/04/18 09:54:52;;;;;;;18.10;11.02;;;;;;;;;;4379394;32;20096;-71
2022/04/18 09:57:23;;;;;;;17.48;11.05;;;;;;;;;;4392421;32;20080;-70
2022/04/18 09:59:51;;;;;;;18.25;9.07;;;;;;;;;;4379527;32;20155;-70
2022/04/18 10:02:19;;;;;;;13.23;8.52;;;;;;;;;;4391889;32;20147;-70
2022/04/18 10:04:45;;;;;;;13.57;7.93;;;;;;;;;;4379079;32;20078;-71
2022/04/18 10:07:13;;;;;;;12.10;6.40;;;;;;;;;;4379282;32;20081;-70
2022/04/18 10:09:41;;;;;;;12.70;9.07;;;;;;;;;;4392168;32;20074;-71
2022/04/18 10:12:09;;;;;;;13.40;8.95;;;;;;;;;;4379402;32;20086;-71
2022/04/18 10:14:40;;;;;;;13.07;8.52;;;;;;;;;;4391567;32;20081;-71
2022/04/18 10:17:08;;;;;;;14.95;8.27;;;;;;;;;;4392155;32;20227;-72
2022/04/18 10:20:04;;;;;;;13.85;7.85;;;;;;;;;;4391683;32;20062;-71
2022/04/18 10:23:07;;;;;;;16.92;9.50;;;;;;;;;;4393625;32;20078;-70
2022/04/18 10:25:55;;;;;;;11.80;6.80;;;;;;;;;;4379432;32;20161;-70
2022/04/18 10:28:31;;;;;;;13.40;7.90;;;;;;;;;;4393056;32;20145;-69
2022/04/18 10:30:58;;;;;;;;;;;;;;;;;;4380661;32;20460;-69
2022/04/18 10:33:25;;;;;;;14.23;7.53;;;;;;;;;;4399490;32;20021;-71
2022/04/18 10:35:53;;;;;;;12.95;8.38;;;;;;;;;;4397008;32;20085;-72
2022/04/18 10:38:27;;;;;;;15.15;8.70;;;;;;;;;;4378660;32;20163;-71
2022/04/18 10:41:14;;;;;;;13.95;8.15;;;;;;;;;;4391466;32;20072;-71
2022/04/18 10:44:10;;;;;;;10.60;6.82;;;;;;;;;;4380880;32;20165;-70
2022/04/18 10:47:03;;;;;;;14.73;8.23;;;;;;;;;;4391415;32;20062;-71
2022/04/18 10:49:33;;;;;;;16.55;7.47;;;;;;;;;;4378243;32;20593;-71
2022/04/18 10:52:09;;;;;;;8.50;5.15;;;;;;;;;;4391563;32;20157;-71
2022/04/18 10:54:35;;;;;;;;;;;;;;;;;;4391794;32;20072;-71
2022/04/18 10:57:05;;;;;;;;;;;;;;;;;;4391263;32;19972;-71
2022/04/18 10:59:36;;;;;;;13.38;8.25;;;;;;;;;;4378301;32;19992;-71
2022/04/18 11:02:07;;;;;;;11.93;7.65;;;;;;;;;;4378679;32;20149;-71
2022/04/18 11:04:44;;;;;;;13.05;7.95;;;;;;;;;;4378221;32;20097;-71
2022/04/18 11:07:11;;;;;;;14.85;9.07;;;;;;;;;;4390488;32;20070;-70
2022/04/18 11:09:41;;;;;;;12.57;6.75;;;;;;;;;;4390516;32;20074;-71
2022/04/18 11:12:12;;;;;;;10.52;6.00;;;;;;;;;;4378517;32;20231;-71
2022/04/18 11:14:40;;;;;;;12.50;8.30;;;;;;;;;;4378756;32;20157;-71
2022/04/18 11:17:10;;;;;;;12.50;8.02;;;;;;;;;;4391082;32;20086;-71
2022/04/18 11:19:40;;;;;;;11.25;6.68;;;;;;;;;;4390947;32;20543;-70
2022/04/18 11:22:25;;;;;;;14.15;8.88;;;;;;;;;;4391928;32;20096;-71
2022/04/18 11:24:52;;;;;;;13.25;7.50;;;;;;;;;;4365642;32;20154;-71
2022/04/18 11:27:28;;;;;;;10.45;6.00;;;;;;;;;;4390157;32;20533;-71
2022/04/18 11:30:15;;;;;;;14.57;7.57;;;;;;;;;;4392558;32;20073;-71
2022/04/18 11:32:46;;;;;;;16.55;8.40;;;;;;;;;;4390675;32;20219;-71
2022/04/18 11:35:14;;;;;;;13.10;7.32;;;;;;;;;;4378005;32;20070;-70
2022/04/18 11:37:43;;;;;;;16.98;8.23;;;;;;;;;;4390833;32;20164;-72
2022/04/18 11:40:19;;;;;;;14.45;7.72;;;;;;;;;;4390888;32;20151;-69
2022/04/18 11:42:45;;;;;;;12.75;8.48;;;;;;;;;;4391739;32;20157;-69
2022/04/18 11:45:28;;;;;;;10.77;7.15;;;;;;;;;;4365258;32;20073;-70
2022/04/18 11:47:55;;;;;;;15.00;7.50;;;;;;;;;;4377814;32;20070;-71
2022/04/18 11:50:22;;;;;;;11.12;7.10;;;;;;;;;;4390184;32;20162;-73
2022/04/18 11:53:01;;;;;;;11.10;6.75;;;;;;;;;;4377870;32;20222;-73
2022/04/18 11:55:27;;;;;;;13.25;7.47;;;;;;;;;;4390625;32;20077;-74
2022/04/18 11:57:54;;;;;;;11.82;7.32;;;;;;;;;;4390266;32;20074;-66
2022/04/18 12:08:45;;;;;;;11.88;6.97;;;;;;;;;;4390467;32;20146;-73
2022/04/18 12:11:12;;;;;;;10.80;6.72;;;;;;;;;;4377596;32;20144;-72
2022/04/18 12:13:44;;;;;;;13.80;8.05;;;;;;;;;;4390104;32;20089;-71
2022/04/18 12:16:12;;;;;;;12.02;7.18;;;;;;;;;;4390368;32;20156;-74
2022/04/18 12:18:39;;;;;;;9.77;7.00;;;;;;;;;;4390586;32;20507;-72
2022/04/18 12:21:05;;;;;;;13.43;7.15;;;;;;;;;;4391478;32;20140;-72
2022/04/18 12:23:32;;;;;;;10.77;6.30;;;;;;;;;;4391527;32;20197;-73
2022/04/18 12:26:01;;;;;;;10.20;6.55;;;;;;;;;;4376911;32;20073;-73
2022/04/18 12:28:29;;;;;;;10.48;5.45;;;;;;;;;;4391637;32;20081;-73
2022/04/18 12:30:57;;;;;;;10.30;5.40;;;;;;;;;;4377490;32;20134;-72
2022/04/18 12:33:28;;;;;;;10.95;6.45;;;;;;;;;;4389769;32;20070;-72
2022/04/18 12:35:56;;;;;;;13.75;7.05;;;;;;;;;;4364801;32;20069;-72
2022/04/18 12:38:36;;;;;;;11.50;6.90;;;;;;;;;;4377074;32;20514;-72
2022/04/18 12:41:03;;;;;;;11.63;6.97;;;;;;;;;;4377323;32;20575;-73
2022/04/18 12:43:32;;;;;;;10.70;7.37;;;;;;;;;;4390045;32;20076;-72
2022/04/18 12:46:17;;;;;;;13.07;7.60;;;;;;;;;;4389686;32;20081;-72
2022/04/18 12:48:51;;;;;;;12.00;8.38;;;;;;;;;;4390072;32;20074;-73
2022/04/18 12:51:18;;;;;;;12.48;7.80;;;;;;;;;;4389708;32;20089;-73
2022/04/18 12:53:53;;;;;;;10.50;6.12;;;;;;;;;;4377131;32;20516;-73
2022/04/18 12:56:23;;;;;;;15.20;8.15;;;;;;;;;;4376934;32;20108;-73
2022/04/18 12:58:53;;;;;;;11.23;7.72;;;;;;;;;;4377551;32;20058;-73
2022/04/18 13:01:24;;;;;;;14.32;8.15;;;;;;;;;;4390307;32;20078;-73
2022/04/18 13:03:52;;;;;;;9.95;6.87;;;;;;;;;;4390221;32;20127;-73
2022/04/18 13:06:41;;;;;;;13.10;7.60;;;;;;;;;;4389468;32;20082;-73
2022/04/18 13:09:09;;;;;;;9.93;6.70;;;;;;;;;;4391787;32;20077;-74
2022/04/18 13:11:43;;;;;;;10.98;7.57;;;;;;;;;;4377450;32;20085;-71
2022/04/18 13:14:11;;;;;;;11.52;8.07;;;;;;;;;;4390115;32;20139;-72
2022/04/18 13:16:42;;;;;;;16.02;8.93;;;;;;;;;;4377521;32;20497;-73
2022/04/18 13:19:13;;;;;;;11.05;7.40;;;;;;;;;;4390327;32;20658;-72
2022/04/18 13:21:41;;;;;;;12.13;7.43;;;;;;;;;;4365525;32;20445;-73
2022/04/18 13:24:08;;;;;;;15.13;8.10;;;;;;;;;;4377522;32;20096;-72
2022/04/18 13:26:36;;;;;;;12.10;7.37;;;;;;;;;;4390787;32;20089;-72
2022/04/18 13:29:04;;;;;;;12.75;7.07;;;;;;;;;;4389383;32;20090;-73
2022/04/18 13:31:31;;;;;;;11.98;6.93;;;;;;;;;;4376900;32;20189;-72
2022/04/18 13:33:58;;;;;;;12.15;6.50;;;;;;;;;;4389396;32;20452;-72
2022/04/18 13:36:34;;;;;;;9.10;6.20;;;;;;;;;;4389093;32;20475;-72
2022/04/18 13:39:09;;;;;;;13.60;8.70;;;;;;;;;;4393468;32;20182;-72
2022/04/18 13:41:36;;;;;;;13.65;9.07;;;;;;;;;;4396111;32;20065;-73
2022/04/18 13:44:03;;;;;;;13.20;7.20;;;;;;;;;;4393749;32;20180;-72
2022/04/18 13:46:31;;;;;;;12.63;7.95;;;;;;;;;;4379541;32;20167;-72
2022/04/18 13:48:58;;;;;;;11.60;8.15;;;;;;;;;;4379476;32;20528;-73
2022/04/18 13:51:26;;;;;;;15.02;7.28;;;;;;;;;;4392103;32;20062;-73
2022/04/18 13:53:53;;;;;;;13.75;7.68;;;;;;;;;;4392442;32;20100;-73
2022/04/18 13:56:21;;;;;;;10.90;8.13;;;;;;;;;;4380077;32;20062;-72
2022/04/18 13:58:47;;;;;;;12.88;7.95;;;;;;;;;;4391687;32;20082;-71
2022/04/18 14:01:14;;;;;;;13.38;7.57;;;;;;;;;;4392875;32;20069;-73
2022/04/18 14:03:42;;;;;;;13.55;8.95;;;;;;;;;;4391834;32;20448;-73
2022/04/18 14:06:09;;;;;;;12.25;7.95;;;;;;;;;;4378900;32;20174;-73
2022/04/18 14:08:37;;;;;;;13.05;8.35;;;;;;;;;;4393806;32;20084;-72
2022/04/18 14:11:04;;;;;;;11.07;7.75;;;;;;;;;;4392909;32;20101;-72
2022/04/18 14:13:31;;;;;;;16.50;8.57;;;;;;;;;;4391632;32;20085;-73
2022/04/18 14:21:29;;;;;;;12.90;7.15;;;;;;;;;;4391665;32;20079;-72
2022/04/18 14:23:56;;;;;;;17.83;9.10;;;;;;;;;;4392865;32;20088;-72
2022/04/18 14:26:26;;;;;;;13.90;8.80;;;;;;;;;;4378751;32;20089;-73
2022/04/18 14:28:53;;;;;;;16.98;8.55;;;;;;;;;;4379744;32;20089;-72
2022/04/18 14:31:20;;;;;;;13.65;8.93;;;;;;;;;;4391827;32;20080;-72
2022/04/18 14:33:49;;;;;;;13.32;6.85;;;;;;;;;;4392794;32;20148;-73
2022/04/18 14:36:19;;;;;;;13.43;7.35;;;;;;;;;;4391222;32;20082;-72
2022/04/18 14:38:46;;;;;;;12.00;6.07;;;;;;;;;;4393192;32;20093;-72
2022/04/18 14:41:13;;;;;;;12.30;7.53;;;;;;;;;;4391294;32;20096;-73
2022/04/18 14:43:39;;;;;;;15.38;7.00;;;;;;;;;;4392929;32;20081;-73
2022/04/18 14:46:06;;;;;;;12.25;7.30;;;;;;;;;;4366161;32;20428;-73
2022/04/18 14:48:33;;;;;;;16.00;7.07;;;;;;;;;;4391170;32;20058;-73
2022/04/18 14:50:59;;;;;;;10.57;7.03;;;;;;;;;;4390747;32;20088;-73
2022/04/18 14:53:26;;;;;;;15.20;6.70;;;;;;;;;;4391222;32;20144;-73
2022/04/18 14:55:53;;;;;;;10.82;5.78;;;;;;;;;;4392468;32;20556;-72
2022/04/18 14:58:20;;;;;;;12.25;6.70;;;;;;;;;;4392689;32;20084;-73
2022/04/18 15:00:47;;;;;;;14.02;7.28;;;;;;;;;;4391013;32;20074;-73
2022/04/18 15:03:13;;;;;;;12.73;6.90;;;;;;;;;;4390895;32;20165;-73
2022/04/18 15:05:40;;;;;;;10.65;7.18;;;;;;;;;;4390536;32;20078;-73
2022/04/18 15:08:07;;;;;;;17.37;8.45;;;;;;;;;;4391815;32;20141;-73
2022/04/18 15:10:34;;;;;;;12.15;7.90;;;;;;;;;;4378623;32;20252;-72
2022/04/18 15:13:01;;;;;;;14.05;8.57;;;;;;;;;;4378243;32;20105;-73
2022/04/18 15:15:28;;;;;;;12.98;8.20;;;;;;;;;;4391016;32;20500;-73